createdAt,value
2023-04-19T00:01:31.185Z,97.10
2023-04-19T00:03:58.260Z,97.10
2023-04-19T00:06:26.117Z,97.20
2023-04-19T00:08:52.828Z,97.40
2023-04-19T00:11:19.695Z,97.60
2023-04-19T00:13:46.351Z,97.60
2023-04-19T00:16:13.069Z,97.60
2023-04-19T00:18:40.586Z,97.50
2023-04-19T00:21:07.264Z,97.60
2023-04-19T00:23:34.173Z,97.50
2023-04-19T00:26:04.530Z,97.80
2023-04-19T00:28:31.257Z,97.50
2023-04-19T00:30:58.024Z,97.70
2023-04-19T00:33:24.757Z,97.70
2023-04-19T00:35:51.450Z,97.80
2023-04-19T00:38:19.697Z,97.90
2023-04-19T00:40:46.791Z,97.90
2023-04-19T00:43:20.502Z,97.90
2023-04-19T00:45:48.697Z,98.10
2023-04-19T00:48:15.630Z,97.90
2023-04-19T00:50:43.647Z,98.00
2023-04-19T00:53:10.781Z,98.00
2023-04-19T00:55:39.438Z,98.10
2023-04-19T00:58:08.327Z,98.10
2023-04-19T01:00:35.982Z,98.00
2023-04-19T01:03:02.933Z,97.90
2023-04-19T01:05:30.854Z,98.00
2023-04-19T01:07:57.516Z,98.20
2023-04-19T01:10:24.432Z,98.20
2023-04-19T01:12:51.137Z,98.30
2023-04-19T01:15:17.984Z,98.30
2023-04-19T01:17:44.771Z,98.40
2023-04-19T01:20:12.094Z,98.40
2023-04-19T01:22:40.104Z,98.50
2023-04-19T01:25:07.473Z,98.70
2023-04-19T01:27:34.955Z,98.90
2023-04-19T01:30:01.666Z,98.70
2023-04-19T01:32:28.417Z,98.70
2023-04-19T01:34:56.246Z,98.70
2023-04-19T01:37:23.223Z,98.70
2023-04-19T01:39:49.998Z,98.60
2023-04-19T01:42:16.729Z,98.70
2023-04-19T01:44:43.465Z,98.90
2023-04-19T01:47:11.431Z,98.90
2023-04-19T01:49:40.785Z,99.10
2023-04-19T01:52:08.573Z,99.20
2023-04-19T01:54:35.224Z,99.30
2023-04-19T01:57:02.407Z,99.40
2023-04-19T01:59:29.328Z,99.70
2023-04-19T02:01:56.046Z,99.80
2023-04-19T02:04:24.519Z,99.90
2023-04-19T02:06:51.231Z,99.90
2023-04-19T02:09:17.882Z,99.90
2023-04-19T02:11:46.173Z,99.90
2023-04-19T02:14:12.904Z,99.90
2023-04-19T02:16:39.748Z,99.90
2023-04-19T02:19:06.877Z,99.90
2023-04-19T02:21:33.559Z,99.90
2023-04-19T02:24:01.051Z,99.90
2023-04-19T02:26:27.778Z,99.90
2023-04-19T02:28:54.485Z,99.90
2023-04-19T02:31:21.239Z,99.90
2023-04-19T02:33:47.964Z,99.90
2023-04-19T02:36:14.680Z,99.90
2023-04-19T02:38:41.477Z,99.90
2023-04-19T02:41:08.754Z,99.90
2023-04-19T02:43:39.193Z,99.90
2023-04-19T02:46:06.384Z,99.90
2023-04-19T02:48:33.182Z,99.90
2023-04-19T02:51:00.018Z,99.90
2023-04-19T02:53:27.269Z,99.90
2023-04-19T02:55:53.974Z,99.90
2023-04-19T02:58:20.888Z,99.90
2023-04-19T03:00:57.422Z,99.90
2023-04-19T03:03:24.842Z,99.90
2023-04-19T03:05:51.812Z,99.90
2023-04-19T03:08:18.652Z,99.90
2023-04-19T03:10:46.042Z,99.90
2023-04-19T03:13:13.187Z,99.90
2023-04-19T03:15:40.180Z,99.90
2023-04-19T03:18:07.531Z,99.90
2023-04-19T03:20:36.192Z,99.90
2023-04-19T03:23:03.271Z,99.90
2023-04-19T03:25:30.500Z,99.90
2023-04-19T03:28:08.904Z,99.90
2023-04-19T03:30:58.507Z,99.90
2023-04-19T03:33:25.230Z,99.90
2023-04-19T03:35:52.195Z,99.90
2023-04-19T03:38:19.301Z,99.90
2023-04-19T03:40:47.027Z,99.90
2023-04-19T03:43:16.002Z,99.90
2023-04-19T03:45:42.753Z,99.90
2023-04-19T03:48:09.859Z,99.90
2023-04-19T03:50:36.539Z,99.90
2023-04-19T03:53:05.167Z,99.90
2023-04-19T03:55:32.143Z,99.90
2023-04-19T03:57:59.477Z,99.90
2023-04-19T04:00:36.824Z,99.90
2023-04-19T04:03:04.380Z,99.90
2023-04-19T04:05:31.471Z,99.90
2023-04-19T04:07:59.893Z,99.90
2023-04-19T04:10:26.717Z,99.90
2023-04-19T04:12:53.454Z,99.90
2023-04-19T04:15:28.090Z,99.90
2023-04-19T04:17:56.200Z,99.90
2023-04-19T04:20:22.991Z,99.90
2023-04-19T04:22:53.221Z,99.90
2023-04-19T04:25:22.795Z,99.90
2023-04-19T04:27:54.412Z,99.90
2023-04-19T04:30:25.221Z,99.90
2023-04-19T04:32:53.497Z,99.90
2023-04-19T04:35:20.629Z,99.90
2023-04-19T04:37:56.611Z,99.90
2023-04-19T04:40:23.385Z,99.90
2023-04-19T04:42:52.825Z,99.90
2023-04-19T04:45:19.761Z,99.90
2023-04-19T04:47:46.706Z,99.90
2023-04-19T04:50:14.597Z,99.90
2023-04-19T04:52:41.385Z,99.90
2023-04-19T04:55:16.586Z,99.90
2023-04-19T04:57:44.403Z,99.90
2023-04-19T05:00:21.333Z,99.90
2023-04-19T05:02:57.321Z,99.90
2023-04-19T05:05:24.657Z,99.90
2023-04-19T05:07:51.361Z,99.90
2023-04-19T05:10:18.066Z,99.90
2023-04-19T05:12:47.159Z,99.90
2023-04-19T05:15:13.929Z,99.90
2023-04-19T05:17:46.253Z,99.90
2023-04-19T05:20:13.882Z,99.90
2023-04-19T05:22:41.447Z,99.90
2023-04-19T05:25:11.489Z,99.90
2023-04-19T05:27:39.144Z,99.90
2023-04-19T05:30:07.041Z,99.90
2023-04-19T05:32:35.903Z,99.90
2023-04-19T05:35:04.707Z,99.90
2023-04-19T05:37:31.392Z,99.90
2023-04-19T05:39:58.285Z,99.90
2023-04-19T05:42:25.753Z,99.90
2023-04-19T05:44:52.450Z,99.90
2023-04-19T05:47:20.418Z,99.90
2023-04-19T05:50:14.981Z,99.90
2023-04-19T05:52:47.220Z,99.90
2023-04-19T05:55:14.142Z,99.90
2023-04-19T05:57:44.335Z,99.90
2023-04-19T06:00:11.817Z,99.90
2023-04-19T06:02:48.046Z,99.90
2023-04-19T06:05:14.974Z,99.90
2023-04-19T06:07:47.239Z,99.90
2023-04-19T06:10:22.076Z,99.90
2023-04-19T06:12:48.775Z,99.90
2023-04-19T06:15:15.592Z,99.90
2023-04-19T06:17:42.575Z,99.90
2023-04-19T06:20:10.109Z,99.90
2023-04-19T06:22:44.894Z,99.60
2023-04-19T06:25:12.066Z,99.50
2023-04-19T06:27:38.971Z,99.80
2023-04-19T06:30:06.750Z,99.70
2023-04-19T06:32:33.474Z,99.50
2023-04-19T06:35:00.257Z,99.00
2023-04-19T06:37:27.063Z,98.70
2023-04-19T06:39:54.194Z,97.70
2023-04-19T06:42:21.373Z,97.50
2023-04-19T06:44:48.001Z,97.00
2023-04-19T06:47:15.073Z,97.50
2023-04-19T06:49:41.721Z,96.40
2023-04-19T06:52:08.372Z,95.50
2023-04-19T06:54:35.017Z,95.40
2023-04-19T06:57:02.951Z,95.20
2023-04-19T06:59:32.155Z,94.50
2023-04-19T07:01:59.521Z,93.00
2023-04-19T07:04:26.824Z,92.80
2023-04-19T07:06:53.657Z,93.00
2023-04-19T07:09:20.856Z,92.80
2023-04-19T07:11:48.299Z,92.90
2023-04-19T07:14:15.313Z,92.30
2023-04-19T07:16:42.216Z,90.50
2023-04-19T07:19:08.852Z,90.10
2023-04-19T07:21:35.583Z,90.40
2023-04-19T07:24:02.470Z,90.10
2023-04-19T07:26:29.292Z,90.30
2023-04-19T07:28:56.870Z,90.50
2023-04-19T07:31:27.017Z,90.50
2023-04-19T07:33:54.389Z,90.60
2023-04-19T07:36:21.479Z,90.50
2023-04-19T07:38:48.491Z,88.90
2023-04-19T07:41:15.166Z,89.60
2023-04-19T07:43:41.965Z,87.70
2023-04-19T07:46:13.441Z,87.00
2023-04-19T07:48:40.318Z,86.40
2023-04-19T07:51:16.724Z,85.00
2023-04-19T07:53:43.993Z,84.90
2023-04-19T07:56:13.026Z,83.30
2023-04-19T07:58:41.205Z,82.80
2023-04-19T08:01:07.973Z,82.60
2023-04-19T08:03:35.469Z,82.10
2023-04-19T08:06:07.984Z,81.60
2023-04-19T08:08:36.178Z,80.00
2023-04-19T08:11:03.257Z,78.40
2023-04-19T08:13:30.374Z,79.20
2023-04-19T08:18:27.329Z,76.50
2023-04-19T08:20:54.107Z,76.60
2023-04-19T08:23:26.035Z,77.10
2023-04-19T08:25:59.127Z,76.40
2023-04-19T08:28:25.773Z,74.90
2023-04-19T08:30:54.615Z,75.30
2023-04-19T08:33:21.493Z,75.10
2023-04-19T08:35:48.492Z,74.60
2023-04-19T08:38:15.315Z,73.90
2023-04-19T08:40:48.652Z,74.20
2023-04-19T08:43:18.098Z,73.70
2023-04-19T08:45:48.079Z,73.50
2023-04-19T08:48:16.401Z,73.60
2023-04-19T08:51:00.477Z,74.80
2023-04-19T08:53:30.571Z,74.10
2023-04-19T09:01:04.787Z,73.40
2023-04-19T09:03:40.847Z,72.80
2023-04-19T09:06:14.461Z,72.70
2023-04-19T09:08:41.798Z,72.30
2023-04-19T09:11:09.001Z,73.20
2023-04-19T09:13:38.698Z,71.70
2023-04-19T09:16:07.822Z,72.50
2023-04-19T09:19:02.726Z,71.90
2023-04-19T09:21:39.717Z,70.80
2023-04-19T09:24:07.126Z,71.10
2023-04-19T09:26:34.265Z,69.90
2023-04-19T09:29:05.082Z,69.80
2023-04-19T09:31:50.153Z,70.80
2023-04-19T09:34:19.408Z,69.80
2023-04-19T09:36:46.905Z,69.40
2023-04-19T09:39:14.599Z,70.50
2023-04-19T09:41:54.794Z,68.50
2023-04-19T09:46:53.511Z,68.50
2023-04-19T09:49:45.631Z,68.50
2023-04-19T09:52:14.774Z,69.40
2023-04-19T09:54:41.797Z,68.40
2023-04-19T09:57:08.631Z,68.60
2023-04-19T09:59:35.349Z,68.70
2023-04-19T10:02:04.486Z,68.50
2023-04-19T10:04:44.029Z,68.90
2023-04-19T10:07:30.139Z,69.20
2023-04-19T10:10:11.739Z,70.20
2023-04-19T10:13:15.444Z,69.20
2023-04-19T10:15:50.011Z,68.90
2023-04-19T10:18:19.545Z,69.50
2023-04-19T10:20:55.233Z,68.80
2023-04-19T10:23:22.851Z,67.40
2023-04-19T10:25:54.917Z,66.20
2023-04-19T10:28:21.600Z,67.90
2023-04-19T10:31:03.453Z,68.60
2023-04-19T10:33:35.474Z,68.60
2023-04-19T10:36:02.585Z,67.20
2023-04-19T10:38:56.290Z,67.70
2023-04-19T10:41:23.267Z,67.10
2023-04-19T10:43:56.393Z,67.80
2023-04-19T10:46:24.330Z,66.90
2023-04-19T10:49:01.465Z,66.50
2023-04-19T10:51:29.400Z,68.20
2023-04-19T10:53:58.751Z,67.00
2023-04-19T10:56:34.343Z,66.20
2023-04-19T10:59:01.183Z,65.70
2023-04-19T11:01:53.639Z,64.70
2023-04-19T11:04:31.737Z,64.60
2023-04-19T11:07:07.221Z,64.70
2023-04-19T11:09:38.719Z,64.90
2023-04-19T11:12:10.561Z,65.40
2023-04-19T11:14:39.906Z,63.60
2023-04-19T11:17:27.102Z,65.60
2023-04-19T11:20:06.748Z,64.70
2023-04-19T11:22:35.862Z,66.90
2023-04-19T11:25:22.064Z,64.40
2023-04-19T11:27:50.913Z,64.80
2023-04-19T11:30:19.935Z,64.00
2023-04-19T11:32:54.573Z,64.40
2023-04-19T11:35:26.220Z,64.10
2023-04-19T11:37:54.096Z,63.20
2023-04-19T11:40:22.580Z,63.10
2023-04-19T11:43:02.605Z,63.20
2023-04-19T11:45:39.848Z,62.10
2023-04-19T11:48:13.135Z,61.70
2023-04-19T11:50:40.766Z,62.20
2023-04-19T11:53:17.566Z,58.80
2023-04-19T11:55:46.232Z,59.10
2023-04-19T11:58:39.813Z,61.20
2023-04-19T12:01:19.870Z,61.30
2023-04-19T12:03:49.017Z,62.60
2023-04-19T12:06:26.783Z,61.70
2023-04-19T12:08:55.411Z,60.70
2023-04-19T12:11:45.783Z,60.90
2023-04-19T12:14:15.077Z,62.30
2023-04-19T12:16:44.684Z,61.30
2023-04-19T12:19:20.582Z,63.20
2023-04-19T12:21:48.533Z,61.30
2023-04-19T12:24:16.068Z,61.20
2023-04-19T12:26:57.247Z,61.40
2023-04-19T12:29:24.397Z,60.50
2023-04-19T12:31:51.416Z,60.50
2023-04-19T12:34:18.122Z,62.40
2023-04-19T12:36:44.777Z,60.30
2023-04-19T12:39:11.966Z,57.70
2023-04-19T12:41:38.714Z,58.70
2023-04-19T12:44:05.550Z,59.40
2023-04-19T12:46:32.366Z,59.70
2023-04-19T12:48:59.191Z,59.90
2023-04-19T12:51:26.124Z,59.40
2023-04-19T12:53:53.513Z,58.10
2023-04-19T12:56:21.340Z,59.30
2023-04-19T12:58:48.431Z,58.60
2023-04-19T13:01:15.345Z,56.60
2023-04-19T13:03:42.303Z,55.50
2023-04-19T13:06:11.049Z,55.30
2023-04-19T13:08:44.568Z,54.70
2023-04-19T13:11:13.918Z,55.90
2023-04-19T13:13:40.621Z,56.30
2023-04-19T13:16:07.955Z,55.90
2023-04-19T13:18:35.324Z,56.50
2023-04-19T13:21:02.081Z,56.70
2023-04-19T13:23:28.732Z,56.60
2023-04-19T13:25:55.496Z,57.10
2023-04-19T13:28:22.156Z,55.00
2023-04-19T13:30:48.883Z,55.70
2023-04-19T13:33:15.664Z,56.40
2023-04-19T13:35:42.365Z,56.40
2023-04-19T13:38:09.313Z,55.70
2023-04-19T13:40:35.993Z,54.70
2023-04-19T13:43:02.725Z,56.00
2023-04-19T13:45:29.386Z,54.30
2023-04-19T13:47:56.176Z,54.90
2023-04-19T13:50:22.851Z,56.30
2023-04-19T13:52:49.546Z,54.80
2023-04-19T13:55:16.221Z,55.50
2023-04-19T13:57:42.870Z,56.30
2023-04-19T14:00:09.958Z,55.40
2023-04-19T14:02:37.367Z,55.60
2023-04-19T14:05:04.567Z,55.50
2023-04-19T14:07:32.412Z,55.20
2023-04-19T14:09:59.074Z,55.30
2023-04-19T14:12:27.026Z,56.20
2023-04-19T14:14:53.677Z,55.40
2023-04-19T14:17:20.578Z,55.70
2023-04-19T14:19:47.222Z,53.40
2023-04-19T14:22:15.707Z,53.70
2023-04-19T14:24:42.433Z,55.30
2023-04-19T14:27:11.423Z,54.20
2023-04-19T14:29:38.847Z,55.20
2023-04-19T14:32:21.468Z,54.70
2023-04-19T14:34:51.455Z,55.00
2023-04-19T14:37:19.741Z,55.10
2023-04-19T14:39:46.536Z,54.60
2023-04-19T14:42:13.640Z,54.70
2023-04-19T14:44:40.865Z,55.40
2023-04-19T14:47:07.739Z,54.10
2023-04-19T14:49:34.490Z,55.70
2023-04-19T14:52:01.240Z,55.90
2023-04-19T14:54:27.989Z,55.70
2023-04-19T14:56:54.651Z,56.50
2023-04-19T14:59:21.529Z,57.30
2023-04-19T15:01:48.330Z,56.20
2023-04-19T15:04:15.308Z,56.40
2023-04-19T15:06:42.118Z,57.00
2023-04-19T15:09:08.749Z,57.00
2023-04-19T15:11:35.530Z,55.40
2023-04-19T15:14:02.399Z,55.30
2023-04-19T15:16:29.359Z,55.90
2023-04-19T15:18:56.101Z,56.00
2023-04-19T15:21:24.688Z,55.70
2023-04-19T15:23:51.675Z,55.60
2023-04-19T15:26:18.471Z,56.20
2023-04-19T15:28:45.997Z,55.60
2023-04-19T15:31:13.247Z,55.40
2023-04-19T15:33:40.343Z,56.00
2023-04-19T15:36:07.271Z,55.60
2023-04-19T15:38:34.036Z,56.30
2023-04-19T15:41:01.444Z,56.40
2023-04-19T15:43:28.211Z,56.30
2023-04-19T15:45:55.259Z,56.00
2023-04-19T15:48:22.150Z,56.10
2023-04-19T15:50:49.502Z,57.30
2023-04-19T15:53:16.831Z,57.90
2023-04-19T15:55:46.430Z,57.90
2023-04-19T15:58:13.921Z,58.00
2023-04-19T16:00:40.586Z,57.00
2023-04-19T16:03:09.664Z,56.20
2023-04-19T16:05:36.425Z,57.20
2023-04-19T16:08:11.587Z,56.80
2023-04-19T16:10:39.236Z,55.80
2023-04-19T16:13:06.344Z,56.20
2023-04-19T16:15:33.417Z,55.90
2023-04-19T16:18:00.230Z,56.00
2023-04-19T16:20:27.130Z,56.30
2023-04-19T16:22:53.840Z,56.70
2023-04-19T16:25:20.608Z,55.20
2023-04-19T16:27:47.955Z,55.70
2023-04-19T16:30:16.321Z,55.80
2023-04-19T16:32:43.394Z,56.10
2023-04-19T16:35:10.759Z,56.50
2023-04-19T16:37:37.580Z,56.40
2023-04-19T16:40:09.687Z,56.10
2023-04-19T16:42:37.972Z,56.20
2023-04-19T16:45:06.257Z,56.50
2023-04-19T16:47:33.465Z,56.40
2023-04-19T16:50:00.638Z,55.90
2023-04-19T16:52:28.911Z,55.90
2023-04-19T16:54:55.877Z,56.20
2023-04-19T16:57:23.766Z,55.90
2023-04-19T16:59:50.801Z,56.20
2023-04-19T17:02:18.036Z,56.70
2023-04-19T17:04:45.272Z,56.30
2023-04-19T17:07:12.450Z,55.00
2023-04-19T17:09:39.256Z,55.90
2023-04-19T17:12:06.925Z,55.80
2023-04-19T17:14:35.038Z,55.80
2023-04-19T17:17:02.020Z,54.60
2023-04-19T17:19:28.812Z,54.70
2023-04-19T17:21:55.968Z,55.30
2023-04-19T17:24:22.772Z,55.40
2023-04-19T17:26:50.132Z,55.20
2023-04-19T17:29:17.257Z,56.10
2023-04-19T17:31:44.392Z,56.40
2023-04-19T17:34:11.389Z,56.00
2023-04-19T17:36:38.255Z,55.80
2023-04-19T17:39:06.594Z,55.90
2023-04-19T17:41:33.744Z,56.40
2023-04-19T17:44:00.625Z,58.10
2023-04-19T17:46:27.597Z,58.10
2023-04-19T17:48:55.386Z,58.10
2023-04-19T17:51:22.482Z,58.50
2023-04-19T17:53:49.580Z,58.30
2023-04-19T17:56:16.443Z,58.10
2023-04-19T17:58:43.219Z,57.10
2023-04-19T18:01:10.417Z,56.90
2023-04-19T18:03:37.964Z,57.00
2023-04-19T18:06:06.030Z,57.10
2023-04-19T18:08:32.819Z,57.20
2023-04-19T18:10:59.661Z,57.00
2023-04-19T18:13:27.794Z,57.50
2023-04-19T18:15:54.823Z,58.30
2023-04-19T18:18:21.723Z,58.30
2023-04-19T18:20:49.899Z,58.30
2023-04-19T18:23:17.358Z,58.80
2023-04-19T18:25:54.279Z,59.00
2023-04-19T18:28:21.258Z,59.20
2023-04-19T18:30:48.269Z,59.90
2023-04-19T18:33:15.104Z,60.10
2023-04-19T18:35:41.951Z,60.80
2023-04-19T18:38:09.607Z,60.90
2023-04-19T18:40:36.334Z,61.50
2023-04-19T18:43:03.121Z,61.60
2023-04-19T18:45:31.304Z,61.90
2023-04-19T18:47:59.947Z,62.20
2023-04-19T18:50:26.846Z,62.40
2023-04-19T18:52:53.744Z,62.60
2023-04-19T18:55:20.559Z,63.10
2023-04-19T18:57:47.344Z,63.00
2023-04-19T19:00:15.075Z,63.50
2023-04-19T19:02:43.484Z,63.70
2023-04-19T19:05:13.813Z,64.20
2023-04-19T19:07:41.802Z,64.10
2023-04-19T19:12:39.614Z,64.40
2023-04-19T19:15:07.429Z,64.40
2023-04-19T19:17:34.164Z,64.70
2023-04-19T19:20:02.015Z,64.40
2023-04-19T19:22:29.288Z,64.50
2023-04-19T19:24:56.686Z,64.80
2023-04-19T19:27:24.099Z,64.80
2023-04-19T19:29:51.326Z,65.00
2023-04-19T19:32:19.175Z,65.50
2023-04-19T19:34:55.780Z,65.20
2023-04-19T19:37:27.004Z,65.40
2023-04-19T19:39:56.381Z,65.20
2023-04-19T19:42:24.057Z,65.10
2023-04-19T19:44:55.275Z,65.70
2023-04-19T19:47:23.838Z,66.00
2023-04-19T19:50:31.570Z,66.20
2023-04-19T19:52:37.702Z,66.40
2023-04-19T19:55:05.400Z,66.20
2023-04-19T19:58:18.638Z,66.50
2023-04-19T20:00:42.056Z,66.60
2023-04-19T20:03:06.667Z,66.90
2023-04-19T20:05:33.868Z,66.90
2023-04-19T20:08:12.542Z,67.20
2023-04-19T20:10:41.206Z,67.00
2023-04-19T20:13:08.047Z,67.40
2023-04-19T20:15:36.601Z,67.50
2023-04-19T20:18:04.362Z,67.90
2023-04-19T20:20:31.444Z,68.00
2023-04-19T20:22:58.492Z,68.10
2023-04-19T20:25:25.399Z,68.70
2023-04-19T20:27:52.150Z,68.70
2023-04-19T20:30:18.893Z,68.70
2023-04-19T20:32:45.962Z,69.10
2023-04-19T20:35:12.845Z,69.50
2023-04-19T20:37:42.461Z,69.60
2023-04-19T20:40:12.273Z,69.90
2023-04-19T20:42:39.376Z,70.00
2023-04-19T20:45:07.792Z,70.00
2023-04-19T20:47:34.602Z,70.40
2023-04-19T20:50:01.350Z,70.70
2023-04-19T20:52:28.126Z,70.90
2023-04-19T20:54:56.511Z,70.50
2023-04-19T20:57:23.273Z,70.90
2023-04-19T20:59:50.836Z,70.80
2023-04-19T21:02:18.058Z,70.90
2023-04-19T21:04:44.854Z,71.50
2023-04-19T21:07:11.602Z,71.20
2023-04-19T21:09:38.357Z,71.40
2023-04-19T21:12:05.230Z,71.70
2023-04-19T21:14:33.584Z,72.10
2023-04-19T21:17:01.345Z,72.20
2023-04-19T21:19:28.218Z,72.20
2023-04-19T21:21:54.961Z,72.50
2023-04-19T21:24:21.800Z,72.20
2023-04-19T21:26:50.301Z,72.10
2023-04-19T21:29:17.302Z,72.30
2023-04-19T21:31:44.609Z,72.40
2023-04-19T21:34:11.491Z,72.40
2023-04-19T21:36:38.556Z,72.50
2023-04-19T21:39:05.288Z,72.70
2023-04-19T21:41:31.996Z,72.40
2023-04-19T21:43:58.725Z,72.30
2023-04-19T21:46:25.881Z,72.80
2023-04-19T21:48:55.510Z,73.20
2023-04-19T21:51:22.812Z,73.10
2023-04-19T21:53:49.543Z,73.10
2023-04-19T21:56:16.842Z,73.20
2023-04-19T21:58:43.543Z,73.10
2023-04-19T22:01:10.775Z,73.20
2023-04-19T22:03:39.103Z,73.00
2023-04-19T22:06:06.725Z,73.10
2023-04-19T22:08:34.339Z,73.50
2023-04-19T22:11:01.494Z,73.50
2023-04-19T22:13:30.088Z,73.70
2023-04-19T22:15:57.170Z,73.80
2023-04-19T22:18:24.139Z,73.90
2023-04-19T22:20:52.101Z,74.00
2023-04-19T22:23:19.719Z,74.30
2023-04-19T22:25:46.420Z,74.00
2023-04-19T22:28:13.131Z,74.10
2023-04-19T22:30:39.900Z,73.90
2023-04-19T22:33:06.958Z,74.40
2023-04-19T22:35:34.277Z,74.50
2023-04-19T22:38:01.521Z,74.60
2023-04-19T22:40:28.349Z,74.60
2023-04-19T22:42:55.544Z,75.20
2023-04-19T22:45:22.264Z,75.20
2023-04-19T22:47:49.051Z,75.70
2023-04-19T22:50:15.968Z,75.80
2023-04-19T22:52:44.546Z,75.90
2023-04-19T22:55:11.727Z,76.00
2023-04-19T22:57:38.752Z,76.10
2023-04-19T23:00:06.908Z,76.10
2023-04-19T23:02:33.677Z,76.40
2023-04-19T23:05:00.569Z,76.10
2023-04-19T23:07:28.704Z,76.30
2023-04-19T23:09:55.942Z,76.40
2023-04-19T23:12:24.341Z,76.50
2023-04-19T23:14:51.090Z,77.10
2023-04-19T23:17:17.979Z,76.90
2023-04-19T23:19:44.756Z,77.00
2023-04-19T23:22:11.392Z,77.50
2023-04-19T23:24:38.082Z,77.10
2023-04-19T23:27:05.098Z,77.00
2023-04-19T23:29:31.856Z,77.20
2023-04-19T23:31:58.490Z,77.30
2023-04-19T23:34:25.265Z,77.20
2023-04-19T23:36:51.879Z,77.20
2023-04-19T23:39:19.107Z,76.80
2023-04-19T23:41:46.031Z,76.40
2023-04-19T23:44:12.720Z,76.50
2023-04-19T23:46:40.676Z,76.50
2023-04-19T23:49:08.565Z,76.20
2023-04-19T23:51:36.494Z,76.40
2023-04-19T23:54:03.236Z,76.40
2023-04-19T23:56:29.893Z,75.80
2023-04-19T23:58:57.316Z,76.20
